sensor_id;sensor_type;location;lat;lon;timestamp;temperature;humidity
10030;DHT22;5055;52.054;8.524;2024-03-23T00:56:04;7.00;97.00
10030;DHT22;5055;52.054;8.524;2024-03-23T00:58:30;7.00;97.00
10030;DHT22;5055;52.054;8.524;2024-03-23T01:00:58;7.00;97.00
10030;DHT22;5055;52.054;8.524;2024-03-23T01:03:24;6.90;97.00
10030;DHT22;5055;52.054;8.524;2024-03-23T01:05:52;6.90;97.00
10030;DHT22;5055;52.054;8.524;2024-03-23T01:08:19;6.90;97.00
10030;DHT22;5055;52.054;8.524;2024-03-23T01:10:54;6.90;97.00
10030;DHT22;5055;52.054;8.524;2024-03-23T01:13:22;6.90;97.00
10030;DHT22;5055;52.054;8.524;2024-03-23T01:15:49;6.90;97.00
10030;DHT22;5055;52.054;8.524;2024-03-23T01:18:15;6.80;97.00
10030;DHT22;5055;52.054;8.524;2024-03-23T01:20:43;6.80;97.00
10030;DHT22;5055;52.054;8.524;2024-03-23T01:23:10;6.80;97.00
10030;DHT22;5055;52.054;8.524;2024-03-23T01:25:37;6.80;97.00
10030;DHT22;5055;52.054;8.524;2024-03-23T01:28:04;6.80;97.00
10030;DHT22;5055;52.054;8.524;2024-03-23T01:30:33;6.80;97.00
10030;DHT22;5055;52.054;8.524;2024-03-23T01:33:00;6.80;97.00
10030;DHT22;5055;52.054;8.524;2024-03-23T01:35:27;6.70;97.00
10030;DHT22;5055;52.054;8.524;2024-03-23T01:37:53;6.70;97.00
10030;DHT22;5055;52.054;8.524;2024-03-23T01:40:20;6.70;97.00
10030;DHT22;5055;52.054;8.524;2024-03-23T01:42:55;6.70;97.00
10030;DHT22;5055;52.054;8.524;2024-03-23T01:45:22;6.70;97.00
10030;DHT22;5055;52.054;8.524;2024-03-23T01:47:51;6.70;97.00
10030;DHT22;5055;52.054;8.524;2024-03-23T01:50:19;6.70;97.00
10030;DHT22;5055;52.054;8.524;2024-03-23T01:52:45;6.70;97.00
10030;DHT22;5055;52.054;8.524;2024-03-23T01:55:13;6.70;97.00
10030;DHT22;5055;52.054;8.524;2024-03-23T01:57:39;6.70;97.00
10030;DHT22;5055;52.054;8.524;2024-03-23T02:00:07;6.70;97.00
10030;DHT22;5055;52.054;8.524;2024-03-23T02:02:34;6.70;97.00
10030;DHT22;5055;52.054;8.524;2024-03-23T02:05:02;6.70;97.00
10030;DHT22;5055;52.054;8.524;2024-03-23T02:07:29;6.70;97.00
10030;DHT22;5055;52.054;8.524;2024-03-23T02:09:56;6.70;97.00
10030;DHT22;5055;52.054;8.524;2024-03-23T02:12:22;6.70;97.00
10030;DHT22;5055;52.054;8.524;2024-03-23T02:14:49;6.70;97.00
10030;DHT22;5055;52.054;8.524;2024-03-23T02:17:16;6.70;97.00
10030;DHT22;5055;52.054;8.524;2024-03-23T02:19:43;6.70;97.00
10030;DHT22;5055;52.054;8.524;2024-03-23T02:22:11;6.70;97.00
10030;DHT22;5055;52.054;8.524;2024-03-23T02:24:40;6.70;97.00
10030;DHT22;5055;52.054;8.524;2024-03-23T02:27:06;6.60;97.00
10030;DHT22;5055;52.054;8.524;2024-03-23T02:29:33;6.70;97.00
10030;DHT22;5055;52.054;8.524;2024-03-23T02:32:00;6.60;97.00
10030;DHT22;5055;52.054;8.524;2024-03-23T02:34:27;6.60;97.00
10030;DHT22;5055;52.054;8.524;2024-03-23T02:36:53;6.60;97.00
10030;DHT22;5055;52.054;8.524;2024-03-23T02:39:20;6.60;97.00
10030;DHT22;5055;52.054;8.524;2024-03-23T02:41:48;6.60;97.00
10030;DHT22;5055;52.054;8.524;2024-03-23T02:44:15;6.50;97.00
10030;DHT22;5055;52.054;8.524;2024-03-23T02:46:41;6.60;97.00
10030;DHT22;5055;52.054;8.524;2024-03-23T02:49:08;6.50;97.00
10030;DHT22;5055;52.054;8.524;2024-03-23T02:51:35;6.50;97.00
10030;DHT22;5055;52.054;8.524;2024-03-23T02:54:02;6.50;97.00
10030;DHT22;5055;52.054;8.524;2024-03-23T02:56:28;6.50;97.00
10030;DHT22;5055;52.054;8.524;2024-03-23T02:58:57;6.40;97.00
10030;DHT22;5055;52.054;8.524;2024-03-23T03:01:23;6.40;97.00
10030;DHT22;5055;52.054;8.524;2024-03-23T03:03:50;6.40;97.00
10030;DHT22;5055;52.054;8.524;2024-03-23T03:17:14;6.30;97.00
10030;DHT22;5055;52.054;8.524;2024-03-23T03:19:41;6.30;97.00
10030;DHT22;5055;52.054;8.524;2024-03-23T03:22:08;6.30;97.00
10030;DHT22;5055;52.054;8.524;2024-03-23T03:24:35;6.30;97.00
10030;DHT22;5055;52.054;8.524;2024-03-23T03:27:01;6.30;97.00
10030;DHT22;5055;52.054;8.524;2024-03-23T03:29:29;6.30;97.00
10030;DHT22;5055;52.054;8.524;2024-03-23T03:32:02;6.20;97.00
10030;DHT22;5055;52.054;8.524;2024-03-23T03:34:31;6.20;97.00
10030;DHT22;5055;52.054;8.524;2024-03-23T03:36:57;6.20;97.00
10030;DHT22;5055;52.054;8.524;2024-03-23T03:39:25;6.20;97.00
10030;DHT22;5055;52.054;8.524;2024-03-23T03:41:52;6.20;97.00
10030;DHT22;5055;52.054;8.524;2024-03-23T03:44:19;6.20;97.00
10030;DHT22;5055;52.054;8.524;2024-03-23T03:46:46;6.20;97.00
10030;DHT22;5055;52.054;8.524;2024-03-23T03:49:13;6.20;97.00
10030;DHT22;5055;52.054;8.524;2024-03-23T03:51:41;6.20;97.00
10030;DHT22;5055;52.054;8.524;2024-03-23T03:54:08;6.10;97.00
10030;DHT22;5055;52.054;8.524;2024-03-23T03:56:34;6.10;97.00
10030;DHT22;5055;52.054;8.524;2024-03-23T03:59:02;6.10;97.00
10030;DHT22;5055;52.054;8.524;2024-03-23T04:01:28;6.10;97.00
10030;DHT22;5055;52.054;8.524;2024-03-23T04:03:55;6.00;97.00
10030;DHT22;5055;52.054;8.524;2024-03-23T04:06:22;6.10;97.00
10030;DHT22;5055;52.054;8.524;2024-03-23T04:08:51;6.00;97.00
10030;DHT22;5055;52.054;8.524;2024-03-23T04:11:17;6.00;97.00
10030;DHT22;5055;52.054;8.524;2024-03-23T04:13:45;6.00;97.00
10030;DHT22;5055;52.054;8.524;2024-03-23T04:16:11;6.00;97.00
10030;DHT22;5055;52.054;8.524;2024-03-23T04:18:38;6.00;97.00
10030;DHT22;5055;52.054;8.524;2024-03-23T04:21:04;5.90;97.00
10030;DHT22;5055;52.054;8.524;2024-03-23T04:23:33;5.90;97.00
10030;DHT22;5055;52.054;8.524;2024-03-23T04:26:04;5.90;97.00
10030;DHT22;5055;52.054;8.524;2024-03-23T04:28:31;5.90;97.00
10030;DHT22;5055;52.054;8.524;2024-03-23T04:30:58;5.90;97.00
10030;DHT22;5055;52.054;8.524;2024-03-23T04:33:30;5.90;97.00
10030;DHT22;5055;52.054;8.524;2024-03-23T04:35:56;5.90;97.00
10030;DHT22;5055;52.054;8.524;2024-03-23T04:38:23;5.90;97.00
10030;DHT22;5055;52.054;8.524;2024-03-23T04:40:54;5.90;97.00
10030;DHT22;5055;52.054;8.524;2024-03-23T04:43:23;5.90;97.00
10030;DHT22;5055;52.054;8.524;2024-03-23T04:45:51;5.90;97.00
10030;DHT22;5055;52.054;8.524;2024-03-23T04:48:20;5.90;97.00
10030;DHT22;5055;52.054;8.524;2024-03-23T04:50:49;5.90;97.00
10030;DHT22;5055;52.054;8.524;2024-03-23T04:53:17;5.90;97.00
10030;DHT22;5055;52.054;8.524;2024-03-23T04:55:44;5.90;97.00
10030;DHT22;5055;52.054;8.524;2024-03-23T04:58:11;5.90;97.00
10030;DHT22;5055;52.054;8.524;2024-03-23T05:00:39;5.80;97.00
10030;DHT22;5055;52.054;8.524;2024-03-23T05:03:06;5.80;97.00
10030;DHT22;5055;52.054;8.524;2024-03-23T05:05:32;5.80;97.00
10030;DHT22;5055;52.054;8.524;2024-03-23T05:08:03;5.80;97.00
10030;DHT22;5055;52.054;8.524;2024-03-23T05:10:30;5.80;97.00
10030;DHT22;5055;52.054;8.524;2024-03-23T05:12:58;5.80;97.00
10030;DHT22;5055;52.054;8.524;2024-03-23T05:15:24;5.80;97.00
10030;DHT22;5055;52.054;8.524;2024-03-23T05:17:53;5.80;97.00
10030;DHT22;5055;52.054;8.524;2024-03-23T05:20:21;5.80;97.00
10030;DHT22;5055;52.054;8.524;2024-03-23T05:22:49;5.80;97.00
10030;DHT22;5055;52.054;8.524;2024-03-23T05:25:20;5.80;97.00
10030;DHT22;5055;52.054;8.524;2024-03-23T05:27:46;5.80;97.00
10030;DHT22;5055;52.054;8.524;2024-03-23T05:30:15;5.80;97.00
10030;DHT22;5055;52.054;8.524;2024-03-23T05:32:41;5.80;97.00
10030;DHT22;5055;52.054;8.524;2024-03-23T05:35:10;5.80;97.00
10030;DHT22;5055;52.054;8.524;2024-03-23T05:37:36;5.80;97.00
10030;DHT22;5055;52.054;8.524;2024-03-23T05:40:08;5.80;97.00
10030;DHT22;5055;52.054;8.524;2024-03-23T05:42:35;5.80;97.00
10030;DHT22;5055;52.054;8.524;2024-03-23T05:45:03;5.90;97.00
10030;DHT22;5055;52.054;8.524;2024-03-23T05:47:32;5.90;97.00
10030;DHT22;5055;52.054;8.524;2024-03-23T05:49:59;5.90;97.00
10030;DHT22;5055;52.054;8.524;2024-03-23T05:52:29;5.90;97.00
10030;DHT22;5055;52.054;8.524;2024-03-23T05:54:56;5.90;97.00
10030;DHT22;5055;52.054;8.524;2024-03-23T05:57:23;5.90;97.00
10030;DHT22;5055;52.054;8.524;2024-03-23T05:59:52;5.90;97.00
10030;DHT22;5055;52.054;8.524;2024-03-23T06:02:19;5.90;97.00
10030;DHT22;5055;52.054;8.524;2024-03-23T06:04:46;5.90;97.00
10030;DHT22;5055;52.054;8.524;2024-03-23T06:07:12;5.90;97.00
10030;DHT22;5055;52.054;8.524;2024-03-23T06:09:42;6.00;97.00
10030;DHT22;5055;52.054;8.524;2024-03-23T06:12:09;6.00;97.00
10030;DHT22;5055;52.054;8.524;2024-03-23T06:14:36;6.00;97.00
10030;DHT22;5055;52.054;8.524;2024-03-23T06:17:02;6.00;97.00
10030;DHT22;5055;52.054;8.524;2024-03-23T06:19:30;6.10;97.00
10030;DHT22;5055;52.054;8.524;2024-03-23T06:21:56;6.10;97.00
10030;DHT22;5055;52.054;8.524;2024-03-23T06:24:23;6.20;97.00
10030;DHT22;5055;52.054;8.524;2024-03-23T06:26:51;6.20;97.00
10030;DHT22;5055;52.054;8.524;2024-03-23T06:29:20;6.30;97.00
10030;DHT22;5055;52.054;8.524;2024-03-23T06:31:53;6.30;97.00
10030;DHT22;5055;52.054;8.524;2024-03-23T06:34:20;6.40;97.00
10030;DHT22;5055;52.054;8.524;2024-03-23T06:36:48;6.40;97.00
10030;DHT22;5055;52.054;8.524;2024-03-23T06:39:15;6.40;97.00
10030;DHT22;5055;52.054;8.524;2024-03-23T06:41:41;6.50;97.00
10030;DHT22;5055;52.054;8.524;2024-03-23T06:44:10;6.50;97.00
10030;DHT22;5055;52.054;8.524;2024-03-23T06:46:36;6.60;97.00
10030;DHT22;5055;52.054;8.524;2024-03-23T06:49:04;6.60;97.00
10030;DHT22;5055;52.054;8.524;2024-03-23T06:51:30;6.60;97.00
10030;DHT22;5055;52.054;8.524;2024-03-23T06:53:57;6.60;97.00
10030;DHT22;5055;52.054;8.524;2024-03-23T06:56:23;6.60;97.00
10030;DHT22;5055;52.054;8.524;2024-03-23T06:58:51;6.60;97.00
10030;DHT22;5055;52.054;8.524;2024-03-23T07:01:19;6.70;97.00
10030;DHT22;5055;52.054;8.524;2024-03-23T07:03:47;6.80;97.00
10030;DHT22;5055;52.054;8.524;2024-03-23T07:06:13;6.80;97.00
10030;DHT22;5055;52.054;8.524;2024-03-23T07:08:41;7.10;97.00
10030;DHT22;5055;52.054;8.524;2024-03-23T07:11:07;7.10;97.00
10030;DHT22;5055;52.054;8.524;2024-03-23T07:13:34;7.30;97.00
10030;DHT22;5055;52.054;8.524;2024-03-23T07:16:01;7.20;97.00
10030;DHT22;5055;52.054;8.524;2024-03-23T07:18:29;7.30;97.00
10030;DHT22;5055;52.054;8.524;2024-03-23T07:20:56;7.30;97.00
10030;DHT22;5055;52.054;8.524;2024-03-23T07:23:24;7.30;97.00
10030;DHT22;5055;52.054;8.524;2024-03-23T07:25:57;7.60;97.00
10030;DHT22;5055;52.054;8.524;2024-03-23T07:28:24;7.80;97.00
10030;DHT22;5055;52.054;8.524;2024-03-23T07:31:04;7.80;97.00
10030;DHT22;5055;52.054;8.524;2024-03-23T07:33:33;8.10;97.00
10030;DHT22;5055;52.054;8.524;2024-03-23T07:35:59;8.00;97.00
10030;DHT22;5055;52.054;8.524;2024-03-23T07:38:28;7.90;97.00
10030;DHT22;5055;52.054;8.524;2024-03-23T07:41:03;7.70;97.00
10030;DHT22;5055;52.054;8.524;2024-03-23T07:43:31;7.60;97.00
10030;DHT22;5055;52.054;8.524;2024-03-23T07:45:57;7.50;97.00
10030;DHT22;5055;52.054;8.524;2024-03-23T07:48:24;7.40;97.00
10030;DHT22;5055;52.054;8.524;2024-03-23T07:51:03;7.40;97.00
10030;DHT22;5055;52.054;8.524;2024-03-23T07:53:31;7.40;97.00
10030;DHT22;5055;52.054;8.524;2024-03-23T07:55:58;7.40;97.00
10030;DHT22;5055;52.054;8.524;2024-03-23T07:58:27;7.50;97.00
10030;DHT22;5055;52.054;8.524;2024-03-23T08:00:54;7.50;97.00
10030;DHT22;5055;52.054;8.524;2024-03-23T08:03:21;7.60;97.00
10030;DHT22;5055;52.054;8.524;2024-03-23T08:05:48;7.80;97.00
10030;DHT22;5055;52.054;8.524;2024-03-23T08:08:16;8.00;97.00
10030;DHT22;5055;52.054;8.524;2024-03-23T08:10:49;8.00;97.00
10030;DHT22;5055;52.054;8.524;2024-03-23T08:13:17;8.00;97.00
10030;DHT22;5055;52.054;8.524;2024-03-23T08:15:43;7.80;97.00
10030;DHT22;5055;52.054;8.524;2024-03-23T08:18:12;7.90;97.00
10030;DHT22;5055;52.054;8.524;2024-03-23T08:20:38;8.10;97.00
10030;DHT22;5055;52.054;8.524;2024-03-23T08:23:06;8.20;97.00
10030;DHT22;5055;52.054;8.524;2024-03-23T08:25:34;8.40;97.00
10030;DHT22;5055;52.054;8.524;2024-03-23T08:28:01;8.50;97.00
10030;DHT22;5055;52.054;8.524;2024-03-23T08:30:29;8.70;97.00
10030;DHT22;5055;52.054;8.524;2024-03-23T08:32:57;8.70;97.00
10030;DHT22;5055;52.054;8.524;2024-03-23T08:35:23;8.80;97.00
10030;DHT22;5055;52.054;8.524;2024-03-23T08:37:50;8.80;97.00
10030;DHT22;5055;52.054;8.524;2024-03-23T08:40:16;8.70;97.00
10030;DHT22;5055;52.054;8.524;2024-03-23T08:42:45;8.70;97.00
10030;DHT22;5055;52.054;8.524;2024-03-23T08:45:11;8.60;97.00
10030;DHT22;5055;52.054;8.524;2024-03-23T08:47:38;8.40;97.00
10030;DHT22;5055;52.054;8.524;2024-03-23T08:50:05;8.50;97.00
10030;DHT22;5055;52.054;8.524;2024-03-23T08:52:33;8.40;97.00
10030;DHT22;5055;52.054;8.524;2024-03-23T08:54:59;8.40;97.00
10030;DHT22;5055;52.054;8.524;2024-03-23T08:57:27;8.40;97.00
10030;DHT22;5055;52.054;8.524;2024-03-23T08:59:54;8.30;97.00
10030;DHT22;5055;52.054;8.524;2024-03-23T09:02:21;8.40;97.00
10030;DHT22;5055;52.054;8.524;2024-03-23T09:04:47;8.70;97.00
10030;DHT22;5055;52.054;8.524;2024-03-23T09:07:15;9.00;97.00
10030;DHT22;5055;52.054;8.524;2024-03-23T09:09:41;9.10;97.00
10030;DHT22;5055;52.054;8.524;2024-03-23T09:12:08;9.00;97.00
10030;DHT22;5055;52.054;8.524;2024-03-23T09:14:34;9.00;97.00
10030;DHT22;5055;52.054;8.524;2024-03-23T09:17:03;9.10;97.00
10030;DHT22;5055;52.054;8.524;2024-03-23T09:19:30;9.00;97.00
10030;DHT22;5055;52.054;8.524;2024-03-23T09:21:57;8.90;97.00
10030;DHT22;5055;52.054;8.524;2024-03-23T09:24:23;8.80;97.00
10030;DHT22;5055;52.054;8.524;2024-03-23T09:26:51;8.70;97.00
10030;DHT22;5055;52.054;8.524;2024-03-23T09:29:18;8.80;97.00
10030;DHT22;5055;52.054;8.524;2024-03-23T09:31:45;9.00;97.00
10030;DHT22;5055;52.054;8.524;2024-03-23T09:34:13;9.40;97.00
10030;DHT22;5055;52.054;8.524;2024-03-23T09:36:40;9.70;97.00
10030;DHT22;5055;52.054;8.524;2024-03-23T09:39:07;9.70;97.00
10030;DHT22;5055;52.054;8.524;2024-03-23T09:41:35;9.40;97.00
10030;DHT22;5055;52.054;8.524;2024-03-23T09:44:01;9.10;97.00
10030;DHT22;5055;52.054;8.524;2024-03-23T09:46:30;8.90;97.00
10030;DHT22;5055;52.054;8.524;2024-03-23T09:49:00;8.70;97.00
10030;DHT22;5055;52.054;8.524;2024-03-23T09:51:31;9.10;97.00
10030;DHT22;5055;52.054;8.524;2024-03-23T09:53:59;9.30;97.00
10030;DHT22;5055;52.054;8.524;2024-03-23T09:56:26;9.80;97.00
10030;DHT22;5055;52.054;8.524;2024-03-23T09:59:00;10.30;97.00
10030;DHT22;5055;52.054;8.524;2024-03-23T10:01:30;10.50;97.00
10030;DHT22;5055;52.054;8.524;2024-03-23T10:03:56;10.40;97.00
10030;DHT22;5055;52.054;8.524;2024-03-23T10:06:23;10.20;97.00
10030;DHT22;5055;52.054;8.524;2024-03-23T10:08:52;10.20;97.00
10030;DHT22;5055;52.054;8.524;2024-03-23T10:11:20;10.30;97.00
10030;DHT22;5055;52.054;8.524;2024-03-23T10:13:47;10.50;97.00
10030;DHT22;5055;52.054;8.524;2024-03-23T10:16:21;10.30;97.00
10030;DHT22;5055;52.054;8.524;2024-03-23T10:18:48;10.70;97.00
10030;DHT22;5055;52.054;8.524;2024-03-23T10:21:16;10.50;97.00
10030;DHT22;5055;52.054;8.524;2024-03-23T10:23:43;10.70;97.00
10030;DHT22;5055;52.054;8.524;2024-03-23T10:26:17;10.70;97.00
10030;DHT22;5055;52.054;8.524;2024-03-23T10:28:54;10.50;97.00
10030;DHT22;5055;52.054;8.524;2024-03-23T10:31:22;10.30;97.00
10030;DHT22;5055;52.054;8.524;2024-03-23T10:33:49;9.70;97.00
10030;DHT22;5055;52.054;8.524;2024-03-23T10:36:20;9.70;97.00
10030;DHT22;5055;52.054;8.524;2024-03-23T10:38:46;9.90;97.00
10030;DHT22;5055;52.054;8.524;2024-03-23T10:41:15;9.80;97.00
10030;DHT22;5055;52.054;8.524;2024-03-23T10:43:43;9.90;97.00
10030;DHT22;5055;52.054;8.524;2024-03-23T10:46:11;10.30;97.00
10030;DHT22;5055;52.054;8.524;2024-03-23T10:48:38;10.60;97.00
10030;DHT22;5055;52.054;8.524;2024-03-23T10:51:07;10.80;97.00
10030;DHT22;5055;52.054;8.524;2024-03-23T10:53:35;10.90;97.00
10030;DHT22;5055;52.054;8.524;2024-03-23T10:56:04;11.20;97.00
10030;DHT22;5055;52.054;8.524;2024-03-23T10:58:36;11.60;97.00
10030;DHT22;5055;52.054;8.524;2024-03-23T11:01:05;12.20;97.00
10030;DHT22;5055;52.054;8.524;2024-03-23T11:03:35;12.00;97.00
10030;DHT22;5055;52.054;8.524;2024-03-23T11:06:04;12.00;97.00
10030;DHT22;5055;52.054;8.524;2024-03-23T11:08:32;12.00;97.00
10030;DHT22;5055;52.054;8.524;2024-03-23T11:11:18;12.00;97.00
10030;DHT22;5055;52.054;8.524;2024-03-23T11:13:48;12.00;97.00
10030;DHT22;5055;52.054;8.524;2024-03-23T11:16:17;12.40;97.00
10030;DHT22;5055;52.054;8.524;2024-03-23T11:18:47;12.30;97.00
10030;DHT22;5055;52.054;8.524;2024-03-23T11:24:22;10.60;97.00
10030;DHT22;5055;52.054;8.524;2024-03-23T11:26:50;9.60;97.00
10030;DHT22;5055;52.054;8.524;2024-03-23T11:29:18;9.10;97.00
10030;DHT22;5055;52.054;8.524;2024-03-23T11:31:46;8.50;97.00
10030;DHT22;5055;52.054;8.524;2024-03-23T11:34:13;8.10;97.00
10030;DHT22;5055;52.054;8.524;2024-03-23T11:36:41;7.90;97.00
10030;DHT22;5055;52.054;8.524;2024-03-23T11:39:14;7.90;97.00
10030;DHT22;5055;52.054;8.524;2024-03-23T11:41:47;7.80;97.00
10030;DHT22;5055;52.054;8.524;2024-03-23T11:44:19;7.80;97.00
10030;DHT22;5055;52.054;8.524;2024-03-23T11:46:46;8.00;97.00
10030;DHT22;5055;52.054;8.524;2024-03-23T11:49:23;8.40;97.00
10030;DHT22;5055;52.054;8.524;2024-03-23T11:51:51;8.50;97.00
10030;DHT22;5055;52.054;8.524;2024-03-23T11:54:21;8.60;97.00
10030;DHT22;5055;52.054;8.524;2024-03-23T11:56:56;8.80;97.00
10030;DHT22;5055;52.054;8.524;2024-03-23T11:59:34;9.40;97.00
10030;DHT22;5055;52.054;8.524;2024-03-23T12:02:08;10.00;97.00
10030;DHT22;5055;52.054;8.524;2024-03-23T12:04:36;10.00;97.00
10030;DHT22;5055;52.054;8.524;2024-03-23T12:07:13;9.90;97.00
10030;DHT22;5055;52.054;8.524;2024-03-23T12:09:41;9.70;97.00
10030;DHT22;5055;52.054;8.524;2024-03-23T12:12:10;9.60;97.00
10030;DHT22;5055;52.054;8.524;2024-03-23T12:14:38;9.80;97.00
10030;DHT22;5055;52.054;8.524;2024-03-23T12:17:12;9.90;97.00
10030;DHT22;5055;52.054;8.524;2024-03-23T12:19:39;9.80;97.00
10030;DHT22;5055;52.054;8.524;2024-03-23T12:22:07;9.80;97.00
10030;DHT22;5055;52.054;8.524;2024-03-23T12:24:33;9.90;97.00
10030;DHT22;5055;52.054;8.524;2024-03-23T12:27:02;10.20;97.00
10030;DHT22;5055;52.054;8.524;2024-03-23T12:29:30;10.60;97.00
10030;DHT22;5055;52.054;8.524;2024-03-23T12:32:01;10.70;97.00
10030;DHT22;5055;52.054;8.524;2024-03-23T12:34:28;10.30;97.00
10030;DHT22;5055;52.054;8.524;2024-03-23T12:36:56;10.30;97.00
10030;DHT22;5055;52.054;8.524;2024-03-23T12:39:22;10.50;97.00
10030;DHT22;5055;52.054;8.524;2024-03-23T12:41:49;10.90;97.00
10030;DHT22;5055;52.054;8.524;2024-03-23T12:44:16;11.00;97.00
10030;DHT22;5055;52.054;8.524;2024-03-23T12:46:43;11.10;97.00
10030;DHT22;5055;52.054;8.524;2024-03-23T12:49:11;10.90;97.00
10030;DHT22;5055;52.054;8.524;2024-03-23T12:51:38;10.60;97.00
10030;DHT22;5055;52.054;8.524;2024-03-23T12:54:05;10.80;97.00
10030;DHT22;5055;52.054;8.524;2024-03-23T12:56:32;11.20;97.00
10030;DHT22;5055;52.054;8.524;2024-03-23T12:58:58;11.10;97.00
10030;DHT22;5055;52.054;8.524;2024-03-23T13:01:25;11.00;97.00
10030;DHT22;5055;52.054;8.524;2024-03-23T13:03:52;11.00;97.00
10030;DHT22;5055;52.054;8.524;2024-03-23T13:06:21;11.20;97.00
10030;DHT22;5055;52.054;8.524;2024-03-23T13:08:47;11.30;97.00
10030;DHT22;5055;52.054;8.524;2024-03-23T13:11:16;11.20;97.00
10030;DHT22;5055;52.054;8.524;2024-03-23T13:13:42;11.30;97.00
10030;DHT22;5055;52.054;8.524;2024-03-23T13:16:10;11.50;97.00
10030;DHT22;5055;52.054;8.524;2024-03-23T13:18:36;11.00;97.00
10030;DHT22;5055;52.054;8.524;2024-03-23T13:21:04;10.90;97.00
10030;DHT22;5055;52.054;8.524;2024-03-23T13:23:31;10.00;97.00
10030;DHT22;5055;52.054;8.524;2024-03-23T13:26:01;9.50;97.00
10030;DHT22;5055;52.054;8.524;2024-03-23T13:28:28;8.90;97.00
10030;DHT22;5055;52.054;8.524;2024-03-23T13:30:56;8.70;97.00
10030;DHT22;5055;52.054;8.524;2024-03-23T13:33:23;8.50;97.00
10030;DHT22;5055;52.054;8.524;2024-03-23T13:35:51;8.10;97.00
10030;DHT22;5055;52.054;8.524;2024-03-23T13:38:18;7.80;97.00
10030;DHT22;5055;52.054;8.524;2024-03-23T13:40:54;7.80;97.00
10030;DHT22;5055;52.054;8.524;2024-03-23T13:43:22;7.70;97.00
10030;DHT22;5055;52.054;8.524;2024-03-23T13:45:52;7.70;97.00
10030;DHT22;5055;52.054;8.524;2024-03-23T13:48:19;7.40;97.00
10030;DHT22;5055;52.054;8.524;2024-03-23T13:50:57;7.10;97.00
10030;DHT22;5055;52.054;8.524;2024-03-23T13:53:23;6.90;97.00
10030;DHT22;5055;52.054;8.524;2024-03-23T13:55:52;6.80;97.00
10030;DHT22;5055;52.054;8.524;2024-03-23T13:58:19;7.40;97.00
10030;DHT22;5055;52.054;8.524;2024-03-23T14:00:46;8.50;97.00
10030;DHT22;5055;52.054;8.524;2024-03-23T14:03:13;9.90;97.00
10030;DHT22;5055;52.054;8.524;2024-03-23T14:05:41;10.90;97.00
10030;DHT22;5055;52.054;8.524;2024-03-23T14:08:08;11.50;97.00
10030;DHT22;5055;52.054;8.524;2024-03-23T14:10:36;11.70;97.00
10030;DHT22;5055;52.054;8.524;2024-03-23T14:13:07;12.00;97.00
10030;DHT22;5055;52.054;8.524;2024-03-23T14:15:34;12.40;97.00
10030;DHT22;5055;52.054;8.524;2024-03-23T14:18:02;11.90;97.00
10030;DHT22;5055;52.054;8.524;2024-03-23T14:20:30;11.50;97.00
10030;DHT22;5055;52.054;8.524;2024-03-23T14:22:56;11.00;97.00
10030;DHT22;5055;52.054;8.524;2024-03-23T14:25:23;10.50;97.00
10030;DHT22;5055;52.054;8.524;2024-03-23T14:27:53;10.10;97.00
10030;DHT22;5055;52.054;8.524;2024-03-23T14:30:21;9.20;97.00
10030;DHT22;5055;52.054;8.524;2024-03-23T14:32:48;8.40;97.00
10030;DHT22;5055;52.054;8.524;2024-03-23T14:35:16;7.80;97.00
10030;DHT22;5055;52.054;8.524;2024-03-23T14:37:42;7.40;97.00
10030;DHT22;5055;52.054;8.524;2024-03-23T14:40:10;7.20;97.00
10030;DHT22;5055;52.054;8.524;2024-03-23T14:42:38;7.10;97.00
10030;DHT22;5055;52.054;8.524;2024-03-23T14:45:06;7.20;97.00
10030;DHT22;5055;52.054;8.524;2024-03-23T14:47:35;7.30;97.00
10030;DHT22;5055;52.054;8.524;2024-03-23T14:50:02;7.40;97.00
10030;DHT22;5055;52.054;8.524;2024-03-23T14:52:29;7.50;97.00
10030;DHT22;5055;52.054;8.524;2024-03-23T14:54:56;7.40;97.00
10030;DHT22;5055;52.054;8.524;2024-03-23T14:57:22;7.30;97.00
10030;DHT22;5055;52.054;8.524;2024-03-23T14:59:50;7.20;97.00
10030;DHT22;5055;52.054;8.524;2024-03-23T15:02:17;7.10;97.00
10030;DHT22;5055;52.054;8.524;2024-03-23T15:04:56;7.00;97.00
10030;DHT22;5055;52.054;8.524;2024-03-23T15:07:22;6.80;97.00
10030;DHT22;5055;52.054;8.524;2024-03-23T15:09:49;6.70;97.00
10030;DHT22;5055;52.054;8.524;2024-03-23T15:12:15;6.60;97.00
10030;DHT22;5055;52.054;8.524;2024-03-23T15:14:43;6.50;97.00
10030;DHT22;5055;52.054;8.524;2024-03-23T15:17:09;6.50;97.00
10030;DHT22;5055;52.054;8.524;2024-03-23T15:19:37;6.40;97.00
10030;DHT22;5055;52.054;8.524;2024-03-23T15:22:05;6.60;97.00
10030;DHT22;5055;52.054;8.524;2024-03-23T15:24:32;7.30;97.00
10030;DHT22;5055;52.054;8.524;2024-03-23T15:27:01;8.20;97.00
10030;DHT22;5055;52.054;8.524;2024-03-23T15:29:28;9.00;97.00
10030;DHT22;5055;52.054;8.524;2024-03-23T15:31:54;9.80;97.00
10030;DHT22;5055;52.054;8.524;2024-03-23T15:34:22;10.30;97.00
10030;DHT22;5055;52.054;8.524;2024-03-23T15:36:49;10.90;97.00
10030;DHT22;5055;52.054;8.524;2024-03-23T15:39:18;11.30;97.00
10030;DHT22;5055;52.054;8.524;2024-03-23T15:41:45;11.40;97.00
10030;DHT22;5055;52.054;8.524;2024-03-23T15:44:12;11.60;97.00
10030;DHT22;5055;52.054;8.524;2024-03-23T15:46:39;11.50;97.00
10030;DHT22;5055;52.054;8.524;2024-03-23T15:49:06;12.00;97.00
10030;DHT22;5055;52.054;8.524;2024-03-23T15:51:32;12.20;97.00
10030;DHT22;5055;52.054;8.524;2024-03-23T15:54:03;12.20;97.00
10030;DHT22;5055;52.054;8.524;2024-03-23T15:56:30;12.30;97.00
10030;DHT22;5055;52.054;8.524;2024-03-23T15:58:58;12.40;97.00
10030;DHT22;5055;52.054;8.524;2024-03-23T16:01:30;12.40;97.00
10030;DHT22;5055;52.054;8.524;2024-03-23T16:03:59;12.40;97.00
10030;DHT22;5055;52.054;8.524;2024-03-23T16:06:26;11.80;97.00
10030;DHT22;5055;52.054;8.524;2024-03-23T16:08:53;11.60;97.00
10030;DHT22;5055;52.054;8.524;2024-03-23T16:11:19;11.20;97.00
10030;DHT22;5055;52.054;8.524;2024-03-23T16:13:48;10.90;97.00
10030;DHT22;5055;52.054;8.524;2024-03-23T16:16:14;10.70;97.00
10030;DHT22;5055;52.054;8.524;2024-03-23T16:18:42;10.20;97.00
10030;DHT22;5055;52.054;8.524;2024-03-23T16:21:10;9.70;97.00
10030;DHT22;5055;52.054;8.524;2024-03-23T16:23:37;9.30;97.00
10030;DHT22;5055;52.054;8.524;2024-03-23T16:26:07;9.10;97.00
10030;DHT22;5055;52.054;8.524;2024-03-23T16:28:36;8.70;97.00
10030;DHT22;5055;52.054;8.524;2024-03-23T16:31:06;8.50;97.00
10030;DHT22;5055;52.054;8.524;2024-03-23T16:33:38;8.40;97.00
10030;DHT22;5055;52.054;8.524;2024-03-23T16:36:05;8.20;97.00
10030;DHT22;5055;52.054;8.524;2024-03-23T16:38:33;8.10;97.00
10030;DHT22;5055;52.054;8.524;2024-03-23T16:41:01;7.90;97.00
10030;DHT22;5055;52.054;8.524;2024-03-23T16:43:29;7.60;97.00
10030;DHT22;5055;52.054;8.524;2024-03-23T16:45:57;7.20;97.00
10030;DHT22;5055;52.054;8.524;2024-03-23T16:48:27;7.00;97.00
10030;DHT22;5055;52.054;8.524;2024-03-23T16:50:56;7.00;97.00
10030;DHT22;5055;52.054;8.524;2024-03-23T16:53:23;7.10;97.00
10030;DHT22;5055;52.054;8.524;2024-03-23T16:55:54;7.10;97.00
10030;DHT22;5055;52.054;8.524;2024-03-23T16:58:23;7.20;97.00
10030;DHT22;5055;52.054;8.524;2024-03-23T17:00:50;7.20;97.00
10030;DHT22;5055;52.054;8.524;2024-03-23T17:03:19;7.10;97.00
10030;DHT22;5055;52.054;8.524;2024-03-23T17:05:47;7.00;97.00
10030;DHT22;5055;52.054;8.524;2024-03-23T17:08:19;6.90;97.00
10030;DHT22;5055;52.054;8.524;2024-03-23T17:10:48;6.80;97.00